sensor_id;sensor_type;location;lat;lon;timestamp;P1;durP1;ratioP1;P2;durP2;ratioP2
5730;SDS011;2890;51.950;7.668;2022-09-14T00:01:22;7.68;;;1.63;;
5730;SDS011;2890;51.950;7.668;2022-09-14T00:03:53;2.95;;;1.33;;
5730;SDS011;2890;51.950;7.668;2022-09-14T00:06:20;4.00;;;1.60;;
5730;SDS011;2890;51.950;7.668;2022-09-14T00:08:48;5.03;;;1.92;;
5730;SDS011;2890;51.950;7.668;2022-09-14T00:11:16;5.15;;;1.85;;
5730;SDS011;2890;51.950;7.668;2022-09-14T00:13:44;7.35;;;2.33;;
5730;SDS011;2890;51.950;7.668;2022-09-14T00:16:12;5.20;;;1.65;;
5730;SDS011;2890;51.950;7.668;2022-09-14T00:18:40;5.32;;;1.73;;
5730;SDS011;2890;51.950;7.668;2022-09-14T00:21:09;4.05;;;1.60;;
5730;SDS011;2890;51.950;7.668;2022-09-14T00:23:37;5.88;;;1.52;;
5730;SDS011;2890;51.950;7.668;2022-09-14T00:26:06;5.38;;;1.55;;
5730;SDS011;2890;51.950;7.668;2022-09-14T00:28:38;4.55;;;1.45;;
5730;SDS011;2890;51.950;7.668;2022-09-14T00:31:06;4.30;;;1.73;;
5730;SDS011;2890;51.950;7.668;2022-09-14T00:33:34;4.47;;;1.60;;
5730;SDS011;2890;51.950;7.668;2022-09-14T00:36:06;5.28;;;2.05;;
5730;SDS011;2890;51.950;7.668;2022-09-14T00:38:36;3.60;;;1.90;;
5730;SDS011;2890;51.950;7.668;2022-09-14T00:41:04;2.47;;;1.60;;
5730;SDS011;2890;51.950;7.668;2022-09-14T00:43:32;5.93;;;1.77;;
5730;SDS011;2890;51.950;7.668;2022-09-14T00:46:14;7.78;;;1.88;;
5730;SDS011;2890;51.950;7.668;2022-09-14T00:48:41;5.00;;;1.80;;
5730;SDS011;2890;51.950;7.668;2022-09-14T00:51:09;4.97;;;1.65;;
5730;SDS011;2890;51.950;7.668;2022-09-14T00:53:36;8.85;;;1.70;;
5730;SDS011;2890;51.950;7.668;2022-09-14T00:56:03;5.78;;;1.70;;
5730;SDS011;2890;51.950;7.668;2022-09-14T00:58:31;9.50;;;2.08;;
5730;SDS011;2890;51.950;7.668;2022-09-14T01:00:58;7.13;;;2.15;;
5730;SDS011;2890;51.950;7.668;2022-09-14T01:03:25;4.90;;;1.80;;
5730;SDS011;2890;51.950;7.668;2022-09-14T01:05:55;4.32;;;1.98;;
5730;SDS011;2890;51.950;7.668;2022-09-14T01:08:31;2.55;;;1.40;;
5730;SDS011;2890;51.950;7.668;2022-09-14T01:11:11;4.35;;;1.80;;
5730;SDS011;2890;51.950;7.668;2022-09-14T01:13:55;4.07;;;2.42;;
5730;SDS011;2890;51.950;7.668;2022-09-14T01:16:29;3.75;;;1.95;;
5730;SDS011;2890;51.950;7.668;2022-09-14T01:18:59;6.80;;;1.55;;
5730;SDS011;2890;51.950;7.668;2022-09-14T01:21:31;8.25;;;2.08;;
5730;SDS011;2890;51.950;7.668;2022-09-14T01:24:02;5.85;;;2.42;;
5730;SDS011;2890;51.950;7.668;2022-09-14T01:26:36;3.40;;;1.52;;
5730;SDS011;2890;51.950;7.668;2022-09-14T01:29:39;5.57;;;1.70;;
5730;SDS011;2890;51.950;7.668;2022-09-14T01:32:10;3.28;;;1.70;;
5730;SDS011;2890;51.950;7.668;2022-09-14T01:34:42;5.75;;;2.00;;
5730;SDS011;2890;51.950;7.668;2022-09-14T01:37:16;8.52;;;2.20;;
5730;SDS011;2890;51.950;7.668;2022-09-14T01:39:48;5.22;;;2.00;;
5730;SDS011;2890;51.950;7.668;2022-09-14T01:42:18;5.72;;;1.98;;
5730;SDS011;2890;51.950;7.668;2022-09-14T01:44:51;6.35;;;2.00;;
5730;SDS011;2890;51.950;7.668;2022-09-14T01:47:22;5.60;;;2.17;;
5730;SDS011;2890;51.950;7.668;2022-09-14T01:49:53;7.90;;;2.17;;
5730;SDS011;2890;51.950;7.668;2022-09-14T01:52:24;5.38;;;2.35;;
5730;SDS011;2890;51.950;7.668;2022-09-14T01:54:59;6.57;;;2.10;;
5730;SDS011;2890;51.950;7.668;2022-09-14T01:57:33;6.80;;;1.90;;
5730;SDS011;2890;51.950;7.668;2022-09-14T02:00:06;4.05;;;1.50;;
5730;SDS011;2890;51.950;7.668;2022-09-14T02:02:36;5.40;;;2.10;;
5730;SDS011;2890;51.950;7.668;2022-09-14T02:05:06;6.57;;;2.13;;
5730;SDS011;2890;51.950;7.668;2022-09-14T02:07:35;3.47;;;1.90;;
5730;SDS011;2890;51.950;7.668;2022-09-14T02:10:03;5.00;;;1.77;;
5730;SDS011;2890;51.950;7.668;2022-09-14T02:12:32;6.28;;;1.98;;
5730;SDS011;2890;51.950;7.668;2022-09-14T02:15:00;4.78;;;2.28;;
5730;SDS011;2890;51.950;7.668;2022-09-14T02:17:28;6.47;;;2.03;;
5730;SDS011;2890;51.950;7.668;2022-09-14T02:19:56;8.95;;;2.08;;
5730;SDS011;2890;51.950;7.668;2022-09-14T02:22:25;4.95;;;1.80;;
5730;SDS011;2890;51.950;7.668;2022-09-14T02:24:54;5.53;;;1.80;;
5730;SDS011;2890;51.950;7.668;2022-09-14T02:27:21;6.45;;;1.77;;
5730;SDS011;2890;51.950;7.668;2022-09-14T02:29:49;4.55;;;1.98;;
5730;SDS011;2890;51.950;7.668;2022-09-14T02:32:18;3.55;;;2.03;;
5730;SDS011;2890;51.950;7.668;2022-09-14T02:34:53;2.83;;;1.45;;
5730;SDS011;2890;51.950;7.668;2022-09-14T02:37:29;7.93;;;1.92;;
5730;SDS011;2890;51.950;7.668;2022-09-14T02:40:04;5.55;;;1.63;;
5730;SDS011;2890;51.950;7.668;2022-09-14T02:42:39;3.65;;;1.77;;
5730;SDS011;2890;51.950;7.668;2022-09-14T02:45:19;7.47;;;2.10;;
5730;SDS011;2890;51.950;7.668;2022-09-14T02:47:51;5.55;;;2.45;;
5730;SDS011;2890;51.950;7.668;2022-09-14T02:50:27;6.07;;;1.85;;
5730;SDS011;2890;51.950;7.668;2022-09-14T02:53:05;5.55;;;1.80;;
5730;SDS011;2890;51.950;7.668;2022-09-14T02:55:44;3.67;;;1.98;;
5730;SDS011;2890;51.950;7.668;2022-09-14T02:58:14;5.72;;;1.90;;
5730;SDS011;2890;51.950;7.668;2022-09-14T03:00:41;3.22;;;2.13;;
5730;SDS011;2890;51.950;7.668;2022-09-14T03:03:11;3.65;;;1.90;;
5730;SDS011;2890;51.950;7.668;2022-09-14T03:05:40;5.50;;;1.90;;
5730;SDS011;2890;51.950;7.668;2022-09-14T03:08:08;5.88;;;2.20;;
5730;SDS011;2890;51.950;7.668;2022-09-14T03:10:35;4.97;;;2.13;;
5730;SDS011;2890;51.950;7.668;2022-09-14T03:13:03;9.80;;;1.90;;
5730;SDS011;2890;51.950;7.668;2022-09-14T03:15:30;7.55;;;1.80;;
5730;SDS011;2890;51.950;7.668;2022-09-14T03:17:57;2.95;;;1.88;;
5730;SDS011;2890;51.950;7.668;2022-09-14T03:20:26;6.03;;;1.80;;
5730;SDS011;2890;51.950;7.668;2022-09-14T03:22:55;5.70;;;2.15;;
5730;SDS011;2890;51.950;7.668;2022-09-14T03:25:24;7.07;;;1.85;;
5730;SDS011;2890;51.950;7.668;2022-09-14T03:27:52;9.63;;;2.67;;
5730;SDS011;2890;51.950;7.668;2022-09-14T03:30:21;3.90;;;1.95;;
5730;SDS011;2890;51.950;7.668;2022-09-14T03:32:48;7.25;;;2.03;;
5730;SDS011;2890;51.950;7.668;2022-09-14T03:35:16;7.05;;;2.08;;
5730;SDS011;2890;51.950;7.668;2022-09-14T03:37:43;3.53;;;1.85;;
5730;SDS011;2890;51.950;7.668;2022-09-14T03:40:12;5.47;;;2.33;;
5730;SDS011;2890;51.950;7.668;2022-09-14T03:42:41;6.43;;;2.35;;
5730;SDS011;2890;51.950;7.668;2022-09-14T03:45:09;5.38;;;2.30;;
5730;SDS011;2890;51.950;7.668;2022-09-14T03:47:36;3.15;;;2.00;;
5730;SDS011;2890;51.950;7.668;2022-09-14T03:50:02;6.40;;;2.50;;
5730;SDS011;2890;51.950;7.668;2022-09-14T03:52:29;7.63;;;2.33;;
5730;SDS011;2890;51.950;7.668;2022-09-14T03:54:56;5.63;;;2.13;;
5730;SDS011;2890;51.950;7.668;2022-09-14T03:57:24;5.15;;;2.10;;
5730;SDS011;2890;51.950;7.668;2022-09-14T03:59:51;6.88;;;1.67;;
5730;SDS011;2890;51.950;7.668;2022-09-14T04:02:18;3.80;;;2.20;;
5730;SDS011;2890;51.950;7.668;2022-09-14T04:04:45;7.10;;;2.00;;
5730;SDS011;2890;51.950;7.668;2022-09-14T04:07:12;6.95;;;2.00;;
5730;SDS011;2890;51.950;7.668;2022-09-14T04:09:39;4.63;;;1.73;;
5730;SDS011;2890;51.950;7.668;2022-09-14T04:12:06;10.35;;;2.35;;
5730;SDS011;2890;51.950;7.668;2022-09-14T04:14:35;5.55;;;1.77;;
5730;SDS011;2890;51.950;7.668;2022-09-14T04:17:02;6.72;;;1.77;;
5730;SDS011;2890;51.950;7.668;2022-09-14T04:19:29;8.18;;;2.10;;
5730;SDS011;2890;51.950;7.668;2022-09-14T04:21:57;7.68;;;2.30;;
5730;SDS011;2890;51.950;7.668;2022-09-14T04:24:23;7.55;;;2.55;;
5730;SDS011;2890;51.950;7.668;2022-09-14T04:26:50;8.02;;;2.00;;
5730;SDS011;2890;51.950;7.668;2022-09-14T04:29:17;5.68;;;2.13;;
5730;SDS011;2890;51.950;7.668;2022-09-14T04:31:45;8.05;;;2.33;;
5730;SDS011;2890;51.950;7.668;2022-09-14T04:34:12;10.98;;;2.63;;
5730;SDS011;2890;51.950;7.668;2022-09-14T04:36:39;7.82;;;2.45;;
5730;SDS011;2890;51.950;7.668;2022-09-14T04:39:05;8.68;;;2.58;;
5730;SDS011;2890;51.950;7.668;2022-09-14T04:41:33;5.30;;;2.10;;
5730;SDS011;2890;51.950;7.668;2022-09-14T04:44:00;7.63;;;2.25;;
5730;SDS011;2890;51.950;7.668;2022-09-14T04:46:27;5.20;;;2.05;;
5730;SDS011;2890;51.950;7.668;2022-09-14T04:48:57;5.72;;;2.20;;
5730;SDS011;2890;51.950;7.668;2022-09-14T04:51:24;4.88;;;2.25;;
5730;SDS011;2890;51.950;7.668;2022-09-14T04:53:53;7.20;;;2.08;;
5730;SDS011;2890;51.950;7.668;2022-09-14T04:56:22;9.20;;;2.30;;
5730;SDS011;2890;51.950;7.668;2022-09-14T04:58:50;5.75;;;2.17;;
5730;SDS011;2890;51.950;7.668;2022-09-14T05:01:19;7.15;;;2.80;;
5730;SDS011;2890;51.950;7.668;2022-09-14T05:03:47;9.90;;;2.40;;
5730;SDS011;2890;51.950;7.668;2022-09-14T05:06:16;3.15;;;1.77;;
5730;SDS011;2890;51.950;7.668;2022-09-14T05:08:44;8.52;;;3.08;;
5730;SDS011;2890;51.950;7.668;2022-09-14T05:11:12;5.22;;;2.03;;
5730;SDS011;2890;51.950;7.668;2022-09-14T05:13:41;5.05;;;2.25;;
5730;SDS011;2890;51.950;7.668;2022-09-14T05:16:09;3.25;;;2.17;;
5730;SDS011;2890;51.950;7.668;2022-09-14T05:18:39;9.32;;;2.65;;
5730;SDS011;2890;51.950;7.668;2022-09-14T05:21:07;6.45;;;2.13;;
5730;SDS011;2890;51.950;7.668;2022-09-14T05:23:38;8.23;;;2.40;;
5730;SDS011;2890;51.950;7.668;2022-09-14T05:26:06;5.68;;;2.25;;
5730;SDS011;2890;51.950;7.668;2022-09-14T05:28:33;5.15;;;2.88;;
5730;SDS011;2890;51.950;7.668;2022-09-14T05:31:02;4.90;;;1.98;;
5730;SDS011;2890;51.950;7.668;2022-09-14T05:33:30;7.63;;;1.77;;
5730;SDS011;2890;51.950;7.668;2022-09-14T05:35:58;6.15;;;2.00;;
5730;SDS011;2890;51.950;7.668;2022-09-14T05:38:26;7.43;;;2.28;;
5730;SDS011;2890;51.950;7.668;2022-09-14T05:40:55;13.27;;;2.78;;
5730;SDS011;2890;51.950;7.668;2022-09-14T05:43:23;7.57;;;2.20;;
5730;SDS011;2890;51.950;7.668;2022-09-14T05:45:49;5.75;;;2.22;;
5730;SDS011;2890;51.950;7.668;2022-09-14T05:48:17;6.30;;;2.15;;
5730;SDS011;2890;51.950;7.668;2022-09-14T05:50:43;8.63;;;2.50;;
5730;SDS011;2890;51.950;7.668;2022-09-14T05:53:10;7.40;;;2.20;;
5730;SDS011;2890;51.950;7.668;2022-09-14T05:55:37;6.18;;;2.40;;
5730;SDS011;2890;51.950;7.668;2022-09-14T05:58:05;5.47;;;2.53;;
5730;SDS011;2890;51.950;7.668;2022-09-14T06:00:32;6.22;;;2.40;;
5730;SDS011;2890;51.950;7.668;2022-09-14T06:02:58;7.90;;;3.10;;
5730;SDS011;2890;51.950;7.668;2022-09-14T06:05:25;8.57;;;3.45;;
5730;SDS011;2890;51.950;7.668;2022-09-14T06:07:52;7.88;;;3.45;;
5730;SDS011;2890;51.950;7.668;2022-09-14T06:10:19;8.15;;;3.10;;
5730;SDS011;2890;51.950;7.668;2022-09-14T06:12:47;7.97;;;2.90;;
5730;SDS011;2890;51.950;7.668;2022-09-14T06:15:15;4.30;;;2.70;;
5730;SDS011;2890;51.950;7.668;2022-09-14T06:17:42;6.30;;;2.72;;
5730;SDS011;2890;51.950;7.668;2022-09-14T06:20:09;8.15;;;3.28;;
5730;SDS011;2890;51.950;7.668;2022-09-14T06:22:36;6.90;;;2.97;;
5730;SDS011;2890;51.950;7.668;2022-09-14T06:25:03;11.88;;;3.42;;
5730;SDS011;2890;51.950;7.668;2022-09-14T06:27:30;6.47;;;2.67;;
5730;SDS011;2890;51.950;7.668;2022-09-14T06:29:57;6.07;;;2.80;;
5730;SDS011;2890;51.950;7.668;2022-09-14T06:32:25;4.53;;;2.33;;
5730;SDS011;2890;51.950;7.668;2022-09-14T06:34:54;7.47;;;2.53;;
5730;SDS011;2890;51.950;7.668;2022-09-14T06:37:21;6.03;;;3.10;;
5730;SDS011;2890;51.950;7.668;2022-09-14T06:39:48;15.38;;;7.20;;
5730;SDS011;2890;51.950;7.668;2022-09-14T06:42:14;4.60;;;3.00;;
5730;SDS011;2890;51.950;7.668;2022-09-14T06:44:41;6.82;;;2.92;;
5730;SDS011;2890;51.950;7.668;2022-09-14T06:47:08;9.95;;;3.25;;
5730;SDS011;2890;51.950;7.668;2022-09-14T06:49:36;9.02;;;3.20;;
5730;SDS011;2890;51.950;7.668;2022-09-14T06:52:03;7.53;;;2.88;;
5730;SDS011;2890;51.950;7.668;2022-09-14T06:54:30;8.00;;;3.03;;
5730;SDS011;2890;51.950;7.668;2022-09-14T06:56:57;7.63;;;3.28;;
5730;SDS011;2890;51.950;7.668;2022-09-14T06:59:23;10.50;;;3.60;;
5730;SDS011;2890;51.950;7.668;2022-09-14T07:01:50;7.70;;;3.22;;
5730;SDS011;2890;51.950;7.668;2022-09-14T07:04:17;7.97;;;3.15;;
5730;SDS011;2890;51.950;7.668;2022-09-14T07:06:46;6.57;;;3.13;;
5730;SDS011;2890;51.950;7.668;2022-09-14T07:09:14;5.85;;;2.70;;
5730;SDS011;2890;51.950;7.668;2022-09-14T07:11:43;8.75;;;3.97;;
5730;SDS011;2890;51.950;7.668;2022-09-14T07:14:10;8.60;;;2.75;;
5730;SDS011;2890;51.950;7.668;2022-09-14T07:16:38;4.90;;;2.97;;
5730;SDS011;2890;51.950;7.668;2022-09-14T07:19:06;7.68;;;3.10;;
5730;SDS011;2890;51.950;7.668;2022-09-14T07:21:35;7.25;;;2.85;;
5730;SDS011;2890;51.950;7.668;2022-09-14T07:24:03;6.53;;;3.28;;
5730;SDS011;2890;51.950;7.668;2022-09-14T07:26:31;7.20;;;3.08;;
5730;SDS011;2890;51.950;7.668;2022-09-14T07:29:04;11.65;;;2.95;;
5730;SDS011;2890;51.950;7.668;2022-09-14T07:31:34;7.88;;;3.97;;
5730;SDS011;2890;51.950;7.668;2022-09-14T07:34:03;6.43;;;3.28;;
5730;SDS011;2890;51.950;7.668;2022-09-14T07:36:30;5.95;;;2.95;;
5730;SDS011;2890;51.950;7.668;2022-09-14T07:38:58;7.85;;;2.50;;
5730;SDS011;2890;51.950;7.668;2022-09-14T07:41:26;6.40;;;2.97;;
5730;SDS011;2890;51.950;7.668;2022-09-14T07:43:55;4.85;;;3.40;;
5730;SDS011;2890;51.950;7.668;2022-09-14T07:46:24;13.43;;;3.30;;
5730;SDS011;2890;51.950;7.668;2022-09-14T07:48:53;8.98;;;3.40;;
5730;SDS011;2890;51.950;7.668;2022-09-14T07:51:20;3.95;;;3.00;;
5730;SDS011;2890;51.950;7.668;2022-09-14T07:53:47;10.60;;;3.03;;
5730;SDS011;2890;51.950;7.668;2022-09-14T07:56:14;8.00;;;3.38;;
5730;SDS011;2890;51.950;7.668;2022-09-14T07:58:43;7.00;;;3.05;;
5730;SDS011;2890;51.950;7.668;2022-09-14T08:01:10;11.63;;;3.35;;
5730;SDS011;2890;51.950;7.668;2022-09-14T08:03:39;8.00;;;3.10;;
5730;SDS011;2890;51.950;7.668;2022-09-14T08:06:07;16.37;;;3.83;;
5730;SDS011;2890;51.950;7.668;2022-09-14T08:08:36;4.57;;;3.33;;
5730;SDS011;2890;51.950;7.668;2022-09-14T08:11:04;7.05;;;3.10;;
5730;SDS011;2890;51.950;7.668;2022-09-14T08:13:35;11.27;;;4.77;;
5730;SDS011;2890;51.950;7.668;2022-09-14T08:16:04;7.93;;;3.72;;
5730;SDS011;2890;51.950;7.668;2022-09-14T08:18:32;6.50;;;4.35;;
5730;SDS011;2890;51.950;7.668;2022-09-14T08:21:02;5.47;;;3.35;;
5730;SDS011;2890;51.950;7.668;2022-09-14T08:23:29;4.65;;;3.42;;
5730;SDS011;2890;51.950;7.668;2022-09-14T08:26:00;8.57;;;3.17;;
5730;SDS011;2890;51.950;7.668;2022-09-14T08:28:28;7.65;;;3.58;;
5730;SDS011;2890;51.950;7.668;2022-09-14T08:30:54;12.07;;;3.15;;
5730;SDS011;2890;51.950;7.668;2022-09-14T08:33:27;5.80;;;3.13;;
5730;SDS011;2890;51.950;7.668;2022-09-14T08:35:55;6.07;;;3.15;;
5730;SDS011;2890;51.950;7.668;2022-09-14T08:38:22;9.73;;;3.30;;
5730;SDS011;2890;51.950;7.668;2022-09-14T08:40:49;6.88;;;3.17;;
5730;SDS011;2890;51.950;7.668;2022-09-14T08:43:16;6.05;;;2.85;;
5730;SDS011;2890;51.950;7.668;2022-09-14T08:45:44;9.57;;;4.50;;
5730;SDS011;2890;51.950;7.668;2022-09-14T08:48:15;6.28;;;2.53;;
5730;SDS011;2890;51.950;7.668;2022-09-14T08:50:48;8.07;;;2.65;;
5730;SDS011;2890;51.950;7.668;2022-09-14T08:53:17;8.90;;;3.00;;
5730;SDS011;2890;51.950;7.668;2022-09-14T08:55:46;6.05;;;3.40;;
5730;SDS011;2890;51.950;7.668;2022-09-14T08:58:19;9.48;;;3.40;;
5730;SDS011;2890;51.950;7.668;2022-09-14T09:00:53;10.68;;;3.30;;
5730;SDS011;2890;51.950;7.668;2022-09-14T09:06:21;8.25;;;2.85;;
5730;SDS011;2890;51.950;7.668;2022-09-14T09:08:55;7.05;;;2.97;;
5730;SDS011;2890;51.950;7.668;2022-09-14T09:11:33;9.70;;;3.65;;
5730;SDS011;2890;51.950;7.668;2022-09-14T09:14:05;13.05;;;8.63;;
5730;SDS011;2890;51.950;7.668;2022-09-14T09:16:41;11.40;;;3.55;;
5730;SDS011;2890;51.950;7.668;2022-09-14T09:19:10;6.65;;;3.33;;
5730;SDS011;2890;51.950;7.668;2022-09-14T09:21:45;6.60;;;3.45;;
5730;SDS011;2890;51.950;7.668;2022-09-14T09:24:21;7.80;;;3.60;;
5730;SDS011;2890;51.950;7.668;2022-09-14T09:26:52;7.65;;;3.25;;
5730;SDS011;2890;51.950;7.668;2022-09-14T09:29:19;9.98;;;3.33;;
5730;SDS011;2890;51.950;7.668;2022-09-14T09:31:47;7.40;;;2.90;;
5730;SDS011;2890;51.950;7.668;2022-09-14T09:34:17;7.47;;;2.70;;
5730;SDS011;2890;51.950;7.668;2022-09-14T09:36:51;5.13;;;2.75;;
5730;SDS011;2890;51.950;7.668;2022-09-14T09:39:20;5.28;;;3.15;;
5730;SDS011;2890;51.950;7.668;2022-09-14T09:41:47;6.50;;;3.13;;
5730;SDS011;2890;51.950;7.668;2022-09-14T09:44:17;4.75;;;2.65;;
5730;SDS011;2890;51.950;7.668;2022-09-14T09:46:45;8.65;;;2.88;;
5730;SDS011;2890;51.950;7.668;2022-09-14T09:49:17;7.32;;;2.50;;
5730;SDS011;2890;51.950;7.668;2022-09-14T09:51:46;11.60;;;3.00;;
5730;SDS011;2890;51.950;7.668;2022-09-14T09:54:20;5.20;;;2.70;;
5730;SDS011;2890;51.950;7.668;2022-09-14T09:56:54;5.18;;;2.55;;
5730;SDS011;2890;51.950;7.668;2022-09-14T09:59:29;10.50;;;3.40;;
5730;SDS011;2890;51.950;7.668;2022-09-14T10:04:57;9.30;;;3.05;;
5730;SDS011;2890;51.950;7.668;2022-09-14T10:07:26;12.90;;;3.13;;
5730;SDS011;2890;51.950;7.668;2022-09-14T10:10:02;7.35;;;2.80;;
5730;SDS011;2890;51.950;7.668;2022-09-14T10:12:31;5.95;;;2.83;;
5730;SDS011;2890;51.950;7.668;2022-09-14T10:15:04;4.07;;;2.58;;
5730;SDS011;2890;51.950;7.668;2022-09-14T10:17:39;6.65;;;2.97;;
5730;SDS011;2890;51.950;7.668;2022-09-14T10:20:06;8.32;;;3.03;;
5730;SDS011;2890;51.950;7.668;2022-09-14T10:22:45;5.40;;;3.05;;
5730;SDS011;2890;51.950;7.668;2022-09-14T10:25:21;8.98;;;3.30;;
5730;SDS011;2890;51.950;7.668;2022-09-14T10:27:56;7.35;;;3.85;;
5730;SDS011;2890;51.950;7.668;2022-09-14T10:30:25;7.65;;;3.80;;
5730;SDS011;2890;51.950;7.668;2022-09-14T10:32:54;7.63;;;3.45;;
5730;SDS011;2890;51.950;7.668;2022-09-14T10:35:25;5.78;;;4.05;;
5730;SDS011;2890;51.950;7.668;2022-09-14T10:38:02;9.10;;;3.58;;
5730;SDS011;2890;51.950;7.668;2022-09-14T10:40:41;11.75;;;4.35;;
5730;SDS011;2890;51.950;7.668;2022-09-14T10:43:12;6.28;;;3.35;;
5730;SDS011;2890;51.950;7.668;2022-09-14T10:45:44;11.98;;;3.78;;
5730;SDS011;2890;51.950;7.668;2022-09-14T10:48:21;7.68;;;3.33;;
5730;SDS011;2890;51.950;7.668;2022-09-14T10:51:03;6.75;;;3.67;;
5730;SDS011;2890;51.950;7.668;2022-09-14T10:53:43;7.55;;;3.55;;
5730;SDS011;2890;51.950;7.668;2022-09-14T10:56:18;9.38;;;3.72;;
5730;SDS011;2890;51.950;7.668;2022-09-14T10:58:57;5.72;;;3.22;;
5730;SDS011;2890;51.950;7.668;2022-09-14T11:01:45;7.03;;;2.92;;
5730;SDS011;2890;51.950;7.668;2022-09-14T11:04:35;5.00;;;3.30;;
5730;SDS011;2890;51.950;7.668;2022-09-14T11:07:15;5.45;;;3.20;;
5730;SDS011;2890;51.950;7.668;2022-09-14T11:09:47;6.72;;;3.03;;
5730;SDS011;2890;51.950;7.668;2022-09-14T11:12:23;9.93;;;3.08;;
5730;SDS011;2890;51.950;7.668;2022-09-14T11:14:59;6.07;;;3.03;;
5730;SDS011;2890;51.950;7.668;2022-09-14T11:17:42;5.60;;;3.13;;
5730;SDS011;2890;51.950;7.668;2022-09-14T11:20:27;5.47;;;3.50;;
5730;SDS011;2890;51.950;7.668;2022-09-14T11:23:05;6.25;;;2.95;;
5730;SDS011;2890;51.950;7.668;2022-09-14T11:25:45;6.05;;;2.78;;
5730;SDS011;2890;51.950;7.668;2022-09-14T11:28:19;6.50;;;2.35;;
5730;SDS011;2890;51.950;7.668;2022-09-14T11:30:50;4.47;;;2.30;;
5730;SDS011;2890;51.950;7.668;2022-09-14T11:33:21;4.25;;;2.35;;
5730;SDS011;2890;51.950;7.668;2022-09-14T11:35:53;5.88;;;2.60;;
5730;SDS011;2890;51.950;7.668;2022-09-14T11:38:25;7.05;;;2.30;;
5730;SDS011;2890;51.950;7.668;2022-09-14T11:40:54;4.90;;;1.95;;
5730;SDS011;2890;51.950;7.668;2022-09-14T11:43:26;4.28;;;2.50;;
5730;SDS011;2890;51.950;7.668;2022-09-14T11:46:00;6.25;;;2.47;;
5730;SDS011;2890;51.950;7.668;2022-09-14T11:48:32;3.50;;;2.30;;
5730;SDS011;2890;51.950;7.668;2022-09-14T11:51:03;10.82;;;2.35;;
5730;SDS011;2890;51.950;7.668;2022-09-14T11:53:34;10.80;;;2.40;;
5730;SDS011;2890;51.950;7.668;2022-09-14T11:56:01;7.30;;;2.55;;
5730;SDS011;2890;51.950;7.668;2022-09-14T11:58:30;6.32;;;2.50;;
5730;SDS011;2890;51.950;7.668;2022-09-14T12:00:59;6.63;;;2.67;;
5730;SDS011;2890;51.950;7.668;2022-09-14T12:03:44;10.77;;;6.30;;
5730;SDS011;2890;51.950;7.668;2022-09-14T12:06:42;9.77;;;4.30;;
5730;SDS011;2890;51.950;7.668;2022-09-14T12:12:22;4.80;;;2.42;;
5730;SDS011;2890;51.950;7.668;2022-09-14T12:14:57;5.65;;;2.65;;
5730;SDS011;2890;51.950;7.668;2022-09-14T12:17:27;6.55;;;3.13;;
5730;SDS011;2890;51.950;7.668;2022-09-14T12:23:05;8.95;;;5.00;;
5730;SDS011;2890;51.950;7.668;2022-09-14T12:25:57;9.07;;;5.07;;
5730;SDS011;2890;51.950;7.668;2022-09-14T12:28:36;8.48;;;4.43;;
5730;SDS011;2890;51.950;7.668;2022-09-14T12:31:10;7.45;;;4.18;;
5730;SDS011;2890;51.950;7.668;2022-09-14T12:34:03;9.68;;;4.00;;
5730;SDS011;2890;51.950;7.668;2022-09-14T12:39:37;3.22;;;2.33;;
5730;SDS011;2890;51.950;7.668;2022-09-14T12:42:26;7.80;;;3.10;;
5730;SDS011;2890;51.950;7.668;2022-09-14T12:44:56;9.27;;;2.83;;
5730;SDS011;2890;51.950;7.668;2022-09-14T12:47:47;4.88;;;2.92;;
5730;SDS011;2890;51.950;7.668;2022-09-14T12:50:16;4.57;;;3.17;;
5730;SDS011;2890;51.950;7.668;2022-09-14T12:52:48;5.22;;;3.20;;
5730;SDS011;2890;51.950;7.668;2022-09-14T12:55:49;10.05;;;3.30;;
5730;SDS011;2890;51.950;7.668;2022-09-14T13:01:21;6.63;;;3.72;;
5730;SDS011;2890;51.950;7.668;2022-09-14T13:03:58;12.48;;;5.38;;
5730;SDS011;2890;51.950;7.668;2022-09-14T13:06:27;9.23;;;6.30;;
5730;SDS011;2890;51.950;7.668;2022-09-14T13:08:59;8.13;;;5.43;;
5730;SDS011;2890;51.950;7.668;2022-09-14T13:11:29;11.95;;;4.35;;
5730;SDS011;2890;51.950;7.668;2022-09-14T13:14:00;7.68;;;3.50;;
5730;SDS011;2890;51.950;7.668;2022-09-14T13:16:34;4.80;;;3.45;;
5730;SDS011;2890;51.950;7.668;2022-09-14T13:19:17;7.45;;;3.42;;
5730;SDS011;2890;51.950;7.668;2022-09-14T13:21:46;5.60;;;3.67;;
5730;SDS011;2890;51.950;7.668;2022-09-14T13:24:27;9.63;;;3.58;;
5730;SDS011;2890;51.950;7.668;2022-09-14T13:26:57;7.03;;;4.47;;
5730;SDS011;2890;51.950;7.668;2022-09-14T13:29:27;6.32;;;3.85;;
5730;SDS011;2890;51.950;7.668;2022-09-14T13:31:55;7.28;;;3.90;;
5730;SDS011;2890;51.950;7.668;2022-09-14T13:34:23;9.95;;;6.90;;
5730;SDS011;2890;51.950;7.668;2022-09-14T13:36:52;9.63;;;4.72;;
5730;SDS011;2890;51.950;7.668;2022-09-14T13:39:24;6.13;;;4.10;;
5730;SDS011;2890;51.950;7.668;2022-09-14T13:41:54;7.38;;;3.95;;
5730;SDS011;2890;51.950;7.668;2022-09-14T13:44:23;10.68;;;4.53;;
5730;SDS011;2890;51.950;7.668;2022-09-14T13:46:53;5.93;;;4.43;;
5730;SDS011;2890;51.950;7.668;2022-09-14T13:49:21;8.45;;;5.40;;
5730;SDS011;2890;51.950;7.668;2022-09-14T13:51:48;10.30;;;4.75;;
5730;SDS011;2890;51.950;7.668;2022-09-14T13:54:16;6.80;;;4.25;;
5730;SDS011;2890;51.950;7.668;2022-09-14T13:59:36;9.02;;;3.90;;
5730;SDS011;2890;51.950;7.668;2022-09-14T14:02:45;9.77;;;4.40;;
5730;SDS011;2890;51.950;7.668;2022-09-14T14:05:20;9.73;;;4.35;;
5730;SDS011;2890;51.950;7.668;2022-09-14T14:07:48;7.78;;;3.95;;
5730;SDS011;2890;51.950;7.668;2022-09-14T14:10:24;6.18;;;3.97;;
5730;SDS011;2890;51.950;7.668;2022-09-14T14:12:53;7.10;;;4.05;;
5730;SDS011;2890;51.950;7.668;2022-09-14T14:15:34;6.22;;;3.33;;
5730;SDS011;2890;51.950;7.668;2022-09-14T14:21:02;6.45;;;4.53;;
5730;SDS011;2890;51.950;7.668;2022-09-14T14:23:30;10.00;;;6.10;;
5730;SDS011;2890;51.950;7.668;2022-09-14T14:26:05;5.18;;;4.13;;
5730;SDS011;2890;51.950;7.668;2022-09-14T14:28:33;5.50;;;3.13;;
5730;SDS011;2890;51.950;7.668;2022-09-14T14:31:01;6.18;;;2.70;;
5730;SDS011;2890;51.950;7.668;2022-09-14T14:33:29;6.25;;;3.00;;
5730;SDS011;2890;51.950;7.668;2022-09-14T14:35:56;3.60;;;2.72;;
5730;SDS011;2890;51.950;7.668;2022-09-14T14:38:23;8.95;;;2.75;;
5730;SDS011;2890;51.950;7.668;2022-09-14T14:40:51;8.32;;;2.83;;
5730;SDS011;2890;51.950;7.668;2022-09-14T14:43:20;3.53;;;2.58;;
5730;SDS011;2890;51.950;7.668;2022-09-14T14:45:49;5.45;;;2.35;;
5730;SDS011;2890;51.950;7.668;2022-09-14T14:48:21;10.85;;;3.58;;
5730;SDS011;2890;51.950;7.668;2022-09-14T14:50:48;4.50;;;2.42;;
5730;SDS011;2890;51.950;7.668;2022-09-14T14:53:15;5.15;;;2.05;;
5730;SDS011;2890;51.950;7.668;2022-09-14T14:55:42;4.93;;;2.30;;
5730;SDS011;2890;51.950;7.668;2022-09-14T14:58:10;4.28;;;2.60;;
5730;SDS011;2890;51.950;7.668;2022-09-14T15:00:40;6.13;;;2.42;;
5730;SDS011;2890;51.950;7.668;2022-09-14T15:03:07;5.45;;;3.63;;
5730;SDS011;2890;51.950;7.668;2022-09-14T15:05:35;7.30;;;2.45;;
5730;SDS011;2890;51.950;7.668;2022-09-14T15:08:05;6.43;;;3.10;;
5730;SDS011;2890;51.950;7.668;2022-09-14T15:10:31;4.90;;;2.42;;
5730;SDS011;2890;51.950;7.668;2022-09-14T15:12:58;5.18;;;3.38;;
5730;SDS011;2890;51.950;7.668;2022-09-14T15:15:25;2.60;;;2.17;;
5730;SDS011;2890;51.950;7.668;2022-09-14T15:17:52;6.88;;;3.08;;
5730;SDS011;2890;51.950;7.668;2022-09-14T15:20:19;4.05;;;2.78;;
5730;SDS011;2890;51.950;7.668;2022-09-14T15:22:48;6.07;;;2.28;;
5730;SDS011;2890;51.950;7.668;2022-09-14T15:25:16;6.90;;;2.80;;
5730;SDS011;2890;51.950;7.668;2022-09-14T15:27:44;5.25;;;3.65;;
5730;SDS011;2890;51.950;7.668;2022-09-14T15:30:11;5.75;;;3.05;;
5730;SDS011;2890;51.950;7.668;2022-09-14T15:32:39;5.07;;;2.60;;
5730;SDS011;2890;51.950;7.668;2022-09-14T15:35:08;6.78;;;3.10;;
5730;SDS011;2890;51.950;7.668;2022-09-14T15:37:36;6.90;;;2.78;;
5730;SDS011;2890;51.950;7.668;2022-09-14T15:40:05;4.60;;;2.55;;
5730;SDS011;2890;51.950;7.668;2022-09-14T15:42:32;5.55;;;3.08;;
5730;SDS011;2890;51.950;7.668;2022-09-14T15:44:59;4.78;;;2.80;;
5730;SDS011;2890;51.950;7.668;2022-09-14T15:47:26;7.93;;;3.15;;
5730;SDS011;2890;51.950;7.668;2022-09-14T15:49:53;3.72;;;3.35;;
5730;SDS011;2890;51.950;7.668;2022-09-14T15:52:19;7.47;;;3.78;;
5730;SDS011;2890;51.950;7.668;2022-09-14T15:54:46;7.40;;;3.42;;
5730;SDS011;2890;51.950;7.668;2022-09-14T15:57:15;5.90;;;3.42;;
5730;SDS011;2890;51.950;7.668;2022-09-14T15:59:41;5.53;;;4.38;;